• Join FlightAware (Why Join?)
  • Login
  • US Flag 
06:29PM EDT


 

Airport Tracker/Info


-or-


 

Live Flight TrackerFlight Track Log ✈ N1944E ✈ 15-Jan-2014 ✈ KJAC - KCOD

Flight Track Log - Related Links

Times and Time Zones

All times are in EST time to prevent confusion due to time zone crossing. See the N1944E flight status page for this flight to view local times or setup timezone preferences in your user account.

Time Position Orientation Groundspeed Altitude Reporting Facility
EST Latitude Longitude Course Direction KTS MPH feet Rate Location/Type
06:20PM 43.5819 -110.7506 53° Northeast 113 130 7,300  Level Salt Lake Center
06:21PM 43.5650 -110.7261 134° Southeast 126 145 8,200 780 Climbing Salt Lake Center
06:22PM 43.5997 -110.6864 40° Northeast 136 157 9,000 780 Climbing Salt Lake Center
06:23PM 43.6333 -110.6547 34° Northeast 142 163 9,900 780 Climbing Salt Lake Center
06:24PM 43.6669 -110.6253 32° Northeast 145 167 10,700 720 Climbing Salt Lake Center
06:25PM 43.7666 -110.4459 51° Northeast  Level Estimated
06:26PM 43.7929 -110.3970 53° Northeast  Level FlightAware Approximate
06:26PM 43.6914 -110.5717 58° Northeast 160 184 11,500  Level Salt Lake Center
06:27PM 43.7189 -110.5208 53° Northeast 163 188 12,600 960 Climbing Salt Lake Center
06:28PM 43.7469 -110.4750 50° Northeast 158 182 13,500 960 Climbing Salt Lake Center
06:29PM 43.7775 -110.4203 52° Northeast 152 175 14,600 1,020 Climbing Salt Lake Center
06:30PM 43.8031 -110.3750 52° Northeast 149 171 15,600 900 Climbing Salt Lake Center
06:31PM 43.8294 -110.3269 53° Northeast 155 178 16,500 720 Climbing Salt Lake Center
06:32PM 43.8558 -110.2797 52° Northeast 156 180 17,100 240 Climbing Salt Lake Center
06:33PM 43.8894 -110.2181 53° Northeast 177 204 17,000 -180 Descending Salt Lake Center
06:34PM 43.9192 -110.1642 53° Northeast 183 211 16,800 -120 Descending Salt Lake Center
06:35PM 43.9481 -110.1081 54° Northeast 185 213 16,800  Level Salt Lake Center
06:36PM 43.9797 -110.0492 53° Northeast 176 203 16,800  Level Salt Lake Center
06:37PM 44.0081 -109.9967 53° Northeast 176 203 16,800  Level Salt Lake Center
06:38PM 44.0400 -109.9347 54° Northeast 177 204 16,800  Level Salt Lake Center
06:40PM 44.0827 -109.8515 55° Northeast  Level FlightAware Approximate
06:47PM 44.2590 -109.4987 55° Northeast  Level FlightAware Approximate
06:48PM 44.2842 -109.4483 55° Northeast  Level FlightAware Approximate
06:49PM 44.3100 -109.3983 53° Northeast  Level FlightAware Approximate
06:50PM 44.3367 -109.3493 53° Northeast  Level FlightAware Approximate
06:51PM 44.3633 -109.3003 53° Northeast  Level FlightAware Approximate
06:52PM 44.3900 -109.2512 53° Northeast  Level FlightAware Approximate
06:53PM 44.4166 -109.2021 53° Northeast  Level FlightAware Approximate
06:54PM 44.4432 -109.1529 53° Northeast  Level FlightAware Approximate
06:55PM 44.4698 -109.1037 53° Northeast  Level FlightAware Approximate
06:56PM 44.4964 -109.0544 53° Northeast  Level FlightAware Approximate
06:57PM 44.5167 -109.0167 53° Northeast  Level FlightAware Approximate
06:58PM 44.5202 -109.0238 53° Northeast  Level Estimated
06:59PM 44.5167 -109.0167 53° Northeast  Level FlightAware Approximate
07:00PM 44.5202 -109.0238 53° Northeast  Level Estimated
07:01PM 44.5167 -109.0167 53° Northeast  Level FlightAware Approximate
07:02PM 44.5202 -109.0238 53° Northeast  Level Estimated
07:03PM 44.5167 -109.0167 53° Northeast  Level FlightAware Approximate
07:04PM 44.5202 -109.0238 53° Northeast  Level Estimated
07:05PM 44.5167 -109.0167 53° Northeast  Level FlightAware Approximate
07:06PM 44.5202 -109.0238 53° Northeast  Level Estimated
07:07PM 44.5167 -109.0167 53° Northeast  Level FlightAware Approximate
07:08PM 44.5202 -109.0238 53° Northeast  Level Estimated
07:09PM 44.5167 -109.0167 53° Northeast  Level FlightAware Approximate